Time;durP1;ratioP1;P1;durP2;ratioP2;P2;SDS_P1;SDS_P2;PMS_P1;PMS_P2;Temp;Humidity;BMP_temperature;BMP_pressure;BME280_temperature;BME280_humidity;BME280_pressure;Samples;Min_cycle;Max_cycle;Signal;HPM_P1;HPM_P2
2022/03/13 00:01:23;;;;;;;16.90;7.53;;;;;;;10.47;58.02;101407.59;5070678;28;20081;-74
2022/03/13 00:03:48;;;;;;;16.70;8.63;;;;;;;10.46;57.96;101408.63;5070919;28;20512;-74
2022/03/13 00:06:14;;;;;;;17.45;7.90;;;;;;;10.46;58.08;101412.13;5063322;28;20032;-74
2022/03/13 00:08:40;;;;;;;18.58;8.63;;;;;;;10.46;58.40;101416.63;5069120;28;20082;-74
2022/03/13 00:11:08;;;;;;;15.77;7.05;;;;;;;10.42;58.41;101429.47;5069422;28;20028;-74
2022/03/13 00:13:37;;;;;;;15.43;6.85;;;;;;;10.41;58.75;101414.50;5070708;28;20590;-74
2022/03/13 00:16:08;;;;;;;13.88;7.07;;;;;;;10.39;58.88;101407.69;5070518;28;20028;-74
2022/03/13 00:18:35;;;;;;;17.60;9.07;;;;;;;10.33;58.84;101419.91;5070219;28;20388;-74
2022/03/13 00:21:03;;;;;;;17.92;7.55;;;;;;;10.37;58.84;101417.72;5070361;28;20025;-74
2022/03/13 00:23:29;;;;;;;15.85;6.88;;;;;;;10.35;59.14;101414.38;5070195;28;20082;-75
2022/03/13 00:25:55;;;;;;;18.27;8.90;;;;;;;10.37;58.91;101415.03;5052389;28;20040;-74
2022/03/13 00:28:20;;;;;;;18.88;7.18;;;;;;;10.33;58.82;101405.75;5070373;28;20047;-74
2022/03/13 00:30:45;;;;;;;15.02;8.10;;;;;;;10.34;58.96;101408.22;5070316;28;20025;-74
2022/03/13 00:33:11;;;;;;;17.60;7.70;;;;;;;10.33;59.27;101413.75;5069925;28;20032;-74
2022/03/13 00:35:38;;;;;;;14.48;6.78;;;;;;;10.24;59.17;101399.63;5070287;28;20060;-74
2022/03/13 00:38:04;;;;;;;16.30;7.32;;;;;;;10.27;58.93;101404.59;5069955;28;20078;-74
2022/03/13 00:40:29;;;;;;;16.20;7.53;;;;;;;10.30;59.18;101404.28;5070009;28;20024;-74
2022/03/13 00:42:55;;;;;;;17.90;8.32;;;;;;;10.28;59.48;101400.97;5070154;28;20035;-74
2022/03/13 00:45:20;;;;;;;15.50;7.57;;;;;;;10.18;59.35;101377.19;5069893;28;20052;-74
2022/03/13 00:47:46;;;;;;;17.17;7.93;;;;;;;10.20;59.67;101380.50;5069749;28;20080;-74
2022/03/13 00:50:11;;;;;;;17.67;8.77;;;;;;;10.21;59.52;101370.66;5070302;28;20495;-74
2022/03/13 00:52:36;;;;;;;15.93;7.38;;;;;;;10.19;59.52;101378.88;5069917;28;20035;-74
2022/03/13 00:55:03;;;;;;;16.83;8.00;;;;;;;10.19;59.72;101372.69;5069991;28;20033;-74
2022/03/13 00:57:29;;;;;;;20.70;8.50;;;;;;;10.13;60.04;101374.25;5070095;28;20038;-74
2022/03/13 00:59:54;;;;;;;15.88;9.13;;;;;;;10.14;60.17;101378.59;5069902;28;20028;-73
2022/03/13 01:02:20;;;;;;;15.38;7.65;;;;;;;10.15;60.19;101379.41;5069889;28;20898;-73
2022/03/13 01:04:45;;;;;;;17.23;8.40;;;;;;;10.08;60.22;101372.09;5069963;28;20028;-74
2022/03/13 01:07:14;;;;;;;17.55;8.88;;;;;;;10.04;60.52;101373.50;5069403;28;20602;-73
2022/03/13 01:09:39;;;;;;;15.82;7.30;;;;;;;10.02;60.68;101369.34;5069808;28;20028;-73
2022/03/13 01:12:05;;;;;;;17.42;7.63;;;;;;;9.98;61.26;101370.72;5069831;28;20440;-73
2022/03/13 01:14:32;;;;;;;16.55;7.93;;;;;;;9.93;61.18;101371.28;5056026;28;20089;-73
2022/03/13 01:17:04;;;;;;;16.73;8.60;;;;;;;9.87;61.39;101370.13;5069715;28;20020;-73
2022/03/13 01:19:30;;;;;;;16.73;8.45;;;;;;;9.85;61.59;101365.97;5069065;28;20032;-73
2022/03/13 01:21:55;;;;;;;17.63;8.75;;;;;;;9.82;61.88;101366.34;5069619;28;20369;-73
2022/03/13 01:24:44;;;;;;;16.20;8.45;;;;;;;9.79;61.96;101356.88;5069530;28;20029;-73
2022/03/13 01:27:20;;;;;;;18.98;7.53;;;;;;;9.72;62.55;101355.97;5069942;28;20507;-73
2022/03/13 01:29:45;;;;;;;16.92;8.25;;;;;;;9.64;62.43;101340.88;5069784;28;20387;-73
2022/03/13 01:32:12;;;;;;;16.70;8.45;;;;;;;9.68;62.89;101344.00;5069201;28;20025;-73
2022/03/13 01:34:42;;;;;;;15.43;7.65;;;;;;;9.66;62.57;101346.00;5069610;28;20028;-73
2022/03/13 01:37:13;;;;;;;14.60;6.90;;;;;;;9.64;62.72;101340.88;5069410;28;20031;-73
2022/03/13 01:39:39;;;;;;;17.98;7.22;;;;;;;9.59;62.96;101337.91;5069378;28;20046;-73
2022/03/13 01:42:04;;;;;;;17.60;7.00;;;;;;;9.59;62.87;101331.75;5069386;28;20119;-74
2022/03/13 01:44:30;;;;;;;12.63;6.85;;;;;;;9.55;62.93;101325.13;5069955;28;20059;-73
2022/03/13 01:46:56;;;;;;;13.15;6.35;;;;;;;9.53;63.05;101325.28;5072184;28;20385;-75
2022/03/13 01:49:23;;;;;;;14.30;7.30;;;;;;;9.52;63.21;101323.63;5073445;28;20055;-73
2022/03/13 01:51:48;;;;;;;14.63;6.85;;;;;;;9.45;63.04;101322.69;5073360;28;20024;-73
2022/03/13 01:54:14;;;;;;;15.65;7.65;;;;;;;9.46;63.60;101321.69;5073345;28;20038;-74
2022/03/13 01:56:41;;;;;;;17.50;7.15;;;;;;;9.39;63.57;101316.25;5071678;28;20488;-74
2022/03/13 01:59:08;;;;;;;15.40;8.40;;;;;;;9.39;63.77;101318.09;5073199;28;20032;-74
2022/03/13 02:01:34;;;;;;;14.52;8.18;;;;;;;9.37;63.94;101317.41;5073154;28;20035;-74
2022/03/13 02:03:59;;;;;;;15.23;7.88;;;;;;;9.34;64.01;101313.28;5072802;28;20029;-74
2022/03/13 02:06:26;;;;;;;15.68;6.53;;;;;;;9.32;64.27;101307.28;5072922;28;20078;-74
2022/03/13 02:08:53;;;;;;;18.92;7.70;;;;;;;9.33;64.18;101314.31;5073081;28;20029;-74
2022/03/13 02:11:22;;;;;;;15.40;6.72;;;;;;;9.31;64.46;101312.81;5073579;28;20060;-74
2022/03/13 02:13:50;;;;;;;15.43;7.63;;;;;;;9.29;64.33;101309.50;5072591;28;20097;-75
2022/03/13 02:16:17;;;;;;;15.40;7.05;;;;;;;9.30;64.95;101311.13;5072833;28;20099;-74
2022/03/13 02:18:50;;;;;;;12.82;6.70;;;;;;;9.31;64.75;101313.63;5071493;28;20448;-74
2022/03/13 02:21:16;;;;;;;14.32;6.57;;;;;;;9.31;64.38;101304.84;5072506;28;20028;-74
2022/03/13 02:23:42;;;;;;;14.73;7.15;;;;;;;9.29;64.26;101305.00;5072378;28;20028;-74
2022/03/13 02:26:08;;;;;;;15.27;7.50;;;;;;;9.26;64.23;101296.53;5072579;28;20040;-74
2022/03/13 02:28:36;;;;;;;17.45;7.65;;;;;;;9.26;64.28;101291.22;5072693;28;20043;-74
2022/03/13 02:31:11;;;;;;;17.17;7.20;;;;;;;9.29;64.43;101289.03;5072172;28;20039;-74
2022/03/13 02:33:37;;;;;;;16.42;7.78;;;;;;;9.27;64.35;101293.69;5071315;28;20033;-74
2022/03/13 02:36:05;;;;;;;17.25;8.20;;;;;;;9.26;64.98;101294.72;5072581;28;20064;-74
2022/03/13 02:38:31;;;;;;;16.35;9.07;;;;;;;9.21;64.64;101286.44;5072261;28;20035;-74
2022/03/13 02:40:58;;;;;;;19.27;9.80;;;;;;;9.21;65.05;101297.06;5072275;28;20380;-75
2022/03/13 02:43:24;;;;;;;17.10;8.25;;;;;;;9.17;65.35;101298.44;5072288;28;20112;-75
2022/03/13 02:45:52;;;;;;;17.33;8.13;;;;;;;9.14;65.11;101291.63;5072428;28;20025;-74
2022/03/13 02:48:18;;;;;;;17.20;8.30;;;;;;;9.09;65.47;101296.66;5072215;28;20049;-74
2022/03/13 02:50:44;;;;;;;18.80;8.48;;;;;;;9.05;65.60;101292.69;5072271;28;20036;-74
2022/03/13 02:53:10;;;;;;;19.63;8.60;;;;;;;9.00;65.45;101287.88;5072147;28;20078;-74
2022/03/13 02:55:35;;;;;;;18.17;9.27;;;;;;;8.97;65.55;101282.09;5072196;28;20032;-74
2022/03/13 02:58:01;;;;;;;16.48;8.20;;;;;;;8.93;65.82;101280.78;5072141;28;20375;-74
2022/03/13 03:00:44;;;;;;;19.60;9.40;;;;;;;8.91;65.41;101280.97;5071963;28;20361;-74
2022/03/13 03:03:13;;;;;;;18.45;8.00;;;;;;;8.86;65.85;101274.53;5072006;28;20024;-74
2022/03/13 03:05:38;;;;;;;18.00;8.63;;;;;;;8.90;65.90;101281.13;5070532;28;20041;-74
2022/03/13 03:08:04;;;;;;;19.15;8.75;;;;;;;8.89;66.18;101282.16;5070610;28;20039;-74
2022/03/13 03:10:30;;;;;;;18.25;9.02;;;;;;;8.88;65.83;101275.16;5071816;28;20449;-74
2022/03/13 03:12:55;;;;;;;19.13;9.07;;;;;;;8.91;66.26;101293.44;5071614;28;20108;-74
2022/03/13 03:15:22;;;;;;;18.63;8.52;;;;;;;8.89;66.97;101282.97;5071762;28;20043;-74
2022/03/13 03:17:48;;;;;;;18.80;9.02;;;;;;;8.88;66.75;101277.81;5072173;28;20036;-74
2022/03/13 03:20:14;;;;;;;19.77;9.02;;;;;;;8.85;67.43;101278.97;5072176;28;20496;-74
2022/03/13 03:22:40;;;;;;;19.27;9.20;;;;;;;8.82;67.32;101274.03;5072003;28;20027;-74
2022/03/13 03:25:06;;;;;;;22.50;10.85;;;;;;;8.78;68.19;101288.69;5071718;28;20143;-74
2022/03/13 03:27:31;;;;;;;19.42;9.32;;;;;;;8.73;68.22;101278.56;5071616;28;20127;-74
2022/03/13 03:29:58;;;;;;;23.08;9.55;;;;;;;8.70;68.56;101281.56;5071767;28;20464;-74
2022/03/13 03:32:24;;;;;;;22.95;9.15;;;;;;;8.68;68.39;101275.59;5071860;28;20028;-74
2022/03/13 03:34:49;;;;;;;20.48;10.73;;;;;;;8.65;69.83;101281.25;5071937;28;20155;-74
2022/03/13 03:37:15;;;;;;;21.80;10.52;;;;;;;8.64;69.10;101274.28;5070892;28;20434;-74
2022/03/13 03:39:40;;;;;;;18.83;9.80;;;;;;;8.60;69.21;101272.16;5071216;28;20029;-74
2022/03/13 03:42:06;;;;;;;19.60;9.60;;;;;;;8.55;69.09;101275.31;5071283;28;20460;-74
2022/03/13 03:44:31;;;;;;;20.50;10.15;;;;;;;8.54;68.92;101274.50;5071136;28;20040;-74
2022/03/13 03:46:59;;;;;;;23.52;10.65;;;;;;;8.51;68.31;101271.34;5071007;28;20093;-74
2022/03/13 03:49:25;;;;;;;20.75;9.82;;;;;;;8.53;67.99;101274.66;5071048;28;20024;-74
2022/03/13 03:51:51;;;;;;;22.50;11.02;;;;;;;8.45;68.50;101267.53;5070760;28;20032;-74
2022/03/13 03:54:16;;;;;;;22.40;11.52;;;;;;;8.50;68.01;101273.19;5071140;28;20361;-74
2022/03/13 03:56:42;;;;;;;21.92;11.68;;;;;;;8.48;67.96;101269.84;5070734;28;20039;-74
2022/03/13 03:59:07;;;;;;;20.55;10.80;;;;;;;8.46;68.15;101266.56;5070890;28;20040;-74
2022/03/13 04:01:41;;;;;;;20.02;11.00;;;;;;;8.47;67.76;101270.88;5070648;28;20036;-74
2022/03/13 04:04:08;;;;;;;20.88;11.40;;;;;;;8.41;67.40;101265.41;5070606;28;20979;-74
2022/03/13 04:06:37;;;;;;;22.20;10.63;;;;;;;8.44;66.90;101271.22;5070577;28;20047;-74
2022/03/13 04:09:02;;;;;;;23.38;11.45;;;;;;;8.40;66.16;101272.53;5069679;28;20074;-74
2022/03/13 04:11:27;;;;;;;23.55;11.52;;;;;;;8.43;65.72;101272.19;5070485;28;20202;-74
2022/03/13 04:13:53;;;;;;;21.52;10.48;;;;;;;8.41;66.21;101268.91;5070574;28;20063;-74
2022/03/13 04:16:18;;;;;;;24.38;11.18;;;;;;;8.44;66.58;101271.22;5070524;28;20036;-74
2022/03/13 04:18:43;;;;;;;22.23;11.63;;;;;;;8.44;65.23;101273.06;5070470;28;20020;-74
2022/03/13 04:21:09;;;;;;;27.23;10.73;;;;;;;8.43;65.06;101264.22;5070437;28;20025;-74
2022/03/13 04:23:36;;;;;;;20.75;11.07;;;;;;;8.42;64.81;101259.09;5070416;28;20040;-74
2022/03/13 04:26:03;;;;;;;23.60;11.27;;;;;;;8.38;64.95;101260.41;5070142;28;20025;-74
2022/03/13 04:28:29;;;;;;;20.90;11.55;;;;;;;8.36;64.50;101257.94;5070377;28;20491;-74
2022/03/13 04:30:56;;;;;;;21.67;11.57;;;;;;;8.37;65.73;101262.22;5068998;28;20541;-74
2022/03/13 04:33:23;;;;;;;20.67;10.27;;;;;;;8.37;64.89;101266.72;5069988;28;20024;-74
2022/03/13 04:35:49;;;;;;;21.52;12.35;;;;;;;8.37;65.08;101262.22;5070024;28;20498;-74
2022/03/13 04:38:14;;;;;;;22.33;11.00;;;;;;;8.36;65.75;101263.25;5070090;28;20032;-74
2022/03/13 04:40:39;;;;;;;23.33;12.68;;;;;;;8.34;63.78;101263.41;5070014;28;20036;-74
2022/03/13 04:43:06;;;;;;;26.33;11.02;;;;;;;8.31;64.28;101249.66;5069840;28;20361;-74
2022/03/13 04:45:31;;;;;;;22.67;12.20;;;;;;;8.20;64.86;101242.03;5068519;28;20071;-74
2022/03/13 04:47:56;;;;;;;23.73;11.23;;;;;;;8.27;64.59;101262.44;5069731;28;20080;-74
2022/03/13 04:50:22;;;;;;;22.48;11.13;;;;;;;8.25;64.80;101269.75;5069864;28;20103;-74
2022/03/13 04:52:47;;;;;;;20.33;10.90;;;;;;;8.24;65.73;101270.75;5068753;28;20025;-74
2022/03/13 04:55:13;;;;;;;22.70;11.75;;;;;;;8.21;65.36;101273.75;5070236;28;20435;-74
2022/03/13 04:57:39;;;;;;;22.55;12.00;;;;;;;8.19;65.22;101262.47;5069826;28;20024;-74
2022/03/13 05:00:05;;;;;;;26.05;12.75;;;;;;;8.19;64.75;101270.44;5069779;28;20139;-74
2022/03/13 05:02:31;;;;;;;25.27;11.13;;;;;;;8.20;64.42;101272.09;5069479;28;20041;-74
2022/03/13 05:04:58;;;;;;;22.17;10.93;;;;;;;8.20;63.56;101273.91;5068487;28;20035;-74
2022/03/13 05:07:24;;;;;;;23.42;11.27;;;;;;;8.21;63.75;101283.56;5069756;28;20032;-74
2022/03/13 05:09:49;;;;;;;22.92;11.18;;;;;;;8.21;63.93;101279.06;5070421;28;20480;-74
2022/03/13 05:12:16;;;;;;;22.85;10.52;;;;;;;8.21;64.17;101281.72;5070417;28;20502;-74
2022/03/13 05:14:42;;;;;;;23.85;10.95;;;;;;;8.22;63.61;101278.06;5070098;28;20037;-74
2022/03/13 05:17:07;;;;;;;22.60;11.57;;;;;;;8.19;64.81;101270.44;5069683;28;20077;-74
2022/03/13 05:19:34;;;;;;;21.65;10.25;;;;;;;8.19;65.92;101274.91;5051368;28;20032;-74
2022/03/13 05:21:59;;;;;;;22.98;11.95;;;;;;;8.13;67.04;101271.13;5069474;28;20043;-74
2022/03/13 05:24:25;;;;;;;23.23;12.85;;;;;;;8.08;67.60;101261.00;5068087;28;20024;-74
2022/03/13 05:26:50;;;;;;;22.55;11.02;;;;;;;8.04;68.58;101272.13;5069482;28;20468;-74
2022/03/13 05:29:15;;;;;;;22.02;11.70;;;;;;;7.97;68.49;101273.81;5069570;28;20028;-74
2022/03/13 05:31:41;;;;;;;24.38;12.02;;;;;;;7.88;68.98;101259.72;5069490;28;20111;-74
2022/03/13 05:34:07;;;;;;;23.05;12.38;;;;;;;7.85;68.45;101265.34;5068153;28;20064;-74
2022/03/13 05:36:32;;;;;;;23.75;12.52;;;;;;;7.84;68.36;101267.19;5069470;28;20105;-74
2022/03/13 05:38:58;;;;;;;22.83;11.45;;;;;;;7.82;69.12;101271.84;5068888;28;20017;-74
2022/03/13 05:41:23;;;;;;;22.88;11.00;;;;;;;7.80;68.12;101276.47;5069265;28;20483;-74
2022/03/13 05:43:50;;;;;;;23.38;11.57;;;;;;;7.77;68.40;101268.84;5067994;28;20032;-74
2022/03/13 05:46:15;;;;;;;24.73;12.68;;;;;;;7.74;68.81;101276.34;5069208;28;20036;-74
2022/03/13 05:48:41;;;;;;;25.02;11.85;;;;;;;7.72;69.94;101271.19;5069383;28;20032;-74
2022/03/13 05:51:06;;;;;;;20.05;10.55;;;;;;;7.72;70.93;101268.53;5068096;28;20074;-74
2022/03/13 05:53:32;;;;;;;27.60;12.48;;;;;;;7.68;70.66;101269.88;5069346;28;20028;-74
2022/03/13 05:55:57;;;;;;;22.05;11.00;;;;;;;7.64;69.98;101268.53;5067885;28;20044;-74
2022/03/13 05:58:23;;;;;;;24.13;10.57;;;;;;;7.62;71.25;101267.88;5067893;28;20028;-74
2022/03/13 06:01:11;;;;;;;28.13;12.05;;;;;;;7.60;70.08;101277.84;5069111;28;20017;-74
2022/03/13 06:03:35;;;;;;;24.42;11.88;;;;;;;7.55;70.21;101275.69;5068841;28;20071;-74
2022/03/13 06:06:02;;;;;;;22.77;12.23;;;;;;;7.53;70.55;101280.31;5069118;28;20036;-74
2022/03/13 06:08:27;;;;;;;23.35;11.88;;;;;;;7.51;71.04;101273.53;5069080;28;20028;-74
2022/03/13 06:10:53;;;;;;;22.98;11.13;;;;;;;7.48;69.38;101269.38;5069096;28;20048;-74
2022/03/13 06:13:22;;;;;;;25.08;12.40;;;;;;;7.47;69.70;101268.56;5067858;28;20115;-74
2022/03/13 06:15:48;;;;;;;24.88;11.93;;;;;;;7.46;69.59;101272.19;5069364;28;20050;-74
2022/03/13 06:18:13;;;;;;;18.85;8.95;;;;;;;7.47;70.39;101267.72;5069161;28;20115;-74
2022/03/13 06:20:39;;;;;;;23.23;11.15;;;;;;;7.46;69.19;101266.88;5067315;28;20025;-74
2022/03/13 06:23:04;;;;;;;21.58;11.15;;;;;;;7.44;69.02;101266.22;5068890;28;20043;-74
2022/03/13 06:25:29;;;;;;;28.27;14.10;;;;;;;7.41;70.38;101255.09;5068663;28;20514;-74
2022/03/13 06:27:55;;;;;;;22.25;10.68;;;;;;;7.44;69.64;101260.94;5068949;28;20454;-74
2022/03/13 06:30:21;;;;;;;20.55;10.15;;;;;;;7.46;71.54;101266.06;5068829;28;20410;-74
2022/03/13 06:32:51;;;;;;;19.35;10.27;;;;;;;7.46;71.25;101266.88;5072443;28;20105;-74
2022/03/13 06:35:18;;;;;;;22.33;10.30;;;;;;;7.46;71.03;101268.69;5072326;28;20048;-74
2022/03/13 06:37:44;;;;;;;21.75;11.57;;;;;;;7.46;70.77;101266.06;5071981;28;20469;-74
2022/03/13 06:40:10;;;;;;;23.88;11.40;;;;;;;7.51;70.30;101273.53;5072264;28;20024;-74
2022/03/13 06:42:37;;;;;;;24.92;11.45;;;;;;;7.47;69.66;101265.91;5072153;28;20120;-74
2022/03/13 06:45:03;;;;;;;23.20;11.48;;;;;;;7.53;69.16;101269.72;5072214;28;20032;-74
2022/03/13 06:47:28;;;;;;;25.88;12.75;;;;;;;7.55;69.81;101275.69;5071974;28;20500;-74
2022/03/13 06:49:54;;;;;;;20.58;11.10;;;;;;;7.55;69.12;101280.16;5072139;28;20082;-74
2022/03/13 06:52:20;;;;;;;24.70;12.98;;;;;;;7.52;69.08;101275.16;5072244;28;20016;-74
2022/03/13 06:54:45;;;;;;;21.60;11.48;;;;;;;7.55;69.46;101283.66;5070729;28;20109;-74
2022/03/13 06:57:13;;;;;;;23.67;12.50;;;;;;;7.54;69.86;101278.50;5072148;28;20028;-74
2022/03/13 06:59:39;;;;;;;21.90;10.90;;;;;;;7.54;70.20;101281.97;5072053;28;20111;-74
2022/03/13 07:02:04;;;;;;;20.80;10.70;;;;;;;7.55;69.30;101274.88;5072139;28;20178;-74
2022/03/13 07:04:29;;;;;;;20.33;10.05;;;;;;;7.58;69.38;101290.44;5072082;28;20035;-74
2022/03/13 07:06:55;;;;;;;21.08;11.15;;;;;;;7.60;70.44;101280.50;5071894;28;20082;-74
2022/03/13 07:09:20;;;;;;;26.65;11.38;;;;;;;7.56;70.27;101271.19;5070571;28;20036;-74
2022/03/13 07:11:47;;;;;;;22.27;11.02;;;;;;;7.65;70.46;101280.81;5071516;28;20036;-74
2022/03/13 07:14:13;;;;;;;25.77;12.18;;;;;;;7.65;70.75;101276.34;5071644;28;20094;-74
2022/03/13 07:16:38;;;;;;;24.25;12.55;;;;;;;7.64;70.39;101258.75;5071451;28;20036;-74
2022/03/13 07:19:04;;;;;;;24.48;11.20;;;;;;;7.71;69.60;101274.84;5071557;28;20032;-74
2022/03/13 07:21:29;;;;;;;23.30;12.55;;;;;;;7.75;70.11;101280.63;5071302;28;20039;-74
2022/03/13 07:23:55;;;;;;;21.05;11.25;;;;;;;7.79;69.81;101280.16;5070093;28;20387;-74
2022/03/13 07:26:20;;;;;;;17.85;9.70;;;;;;;7.83;69.64;101280.63;5071495;28;20036;-74
2022/03/13 07:28:45;;;;;;;20.67;10.13;;;;;;;7.78;68.52;101270.53;5071469;28;20028;-74
2022/03/13 07:31:11;;;;;;;19.67;9.70;;;;;;;7.78;68.12;101264.38;5071478;28;20029;-74
2022/03/13 07:33:36;;;;;;;22.48;12.18;;;;;;;7.75;67.35;101262.06;5071284;28;20035;-74
2022/03/13 07:36:02;;;;;;;22.00;11.80;;;;;;;7.81;67.23;101278.16;5071285;28;20086;-74
2022/03/13 07:38:28;;;;;;;21.08;10.68;;;;;;;7.83;69.13;101273.50;5070052;28;20514;-74
2022/03/13 07:40:53;;;;;;;19.73;10.13;;;;;;;7.88;67.27;101273.81;5070051;28;20055;-74
2022/03/13 07:43:19;;;;;;;21.95;10.55;;;;;;;7.98;66.60;101278.94;5069791;28;20032;-74
2022/03/13 07:45:44;;;;;;;21.50;9.98;;;;;;;8.04;66.87;101272.13;5069406;28;20405;-74
2022/03/13 07:48:09;;;;;;;24.10;11.40;;;;;;;8.10;66.12;101264.31;5070577;28;20052;-74
2022/03/13 07:50:35;;;;;;;20.10;10.30;;;;;;;8.16;65.51;101261.97;5070939;28;20081;-74
2022/03/13 07:53:00;;;;;;;21.25;10.80;;;;;;;8.26;66.08;101262.63;5069441;28;20094;-74
2022/03/13 07:55:26;;;;;;;21.10;11.15;;;;;;;8.38;65.84;101271.84;5071268;28;20081;-74
2022/03/13 07:57:51;;;;;;;20.60;10.07;;;;;;;8.48;65.02;101266.38;5071222;28;20024;-74
2022/03/13 08:00:18;;;;;;;21.65;10.27;;;;;;;8.50;65.09;101269.69;5071551;28;20396;-74
2022/03/13 08:02:47;;;;;;;22.10;10.25;;;;;;;8.41;64.70;101262.75;5071022;28;20029;-74
2022/03/13 08:05:18;;;;;;;21.25;10.60;;;;;;;8.36;63.13;101263.25;5070786;28;20123;-74
2022/03/13 08:07:44;;;;;;;18.73;9.77;;;;;;;8.33;63.40;101269.72;5070792;28;20036;-75
2022/03/13 08:10:10;;;;;;;21.83;11.40;;;;;;;8.34;63.76;101262.59;5070401;28;20116;-75
2022/03/13 08:12:38;;;;;;;20.15;9.98;;;;;;;8.36;63.92;101263.25;5070552;28;20024;-75
2022/03/13 08:15:06;;;;;;;20.23;10.85;;;;;;;8.39;63.51;101272.72;5070447;28;20032;-76
2022/03/13 08:17:32;;;;;;;19.88;10.80;;;;;;;8.43;63.39;101258.91;5070442;28;20602;-75
2022/03/13 08:19:59;;;;;;;21.83;11.02;;;;;;;8.45;62.77;101259.56;5070554;28;20040;-73
2022/03/13 08:22:25;;;;;;;22.13;12.57;;;;;;;8.46;62.11;101257.75;5070579;28;20032;-74
2022/03/13 08:24:50;;;;;;;23.10;12.05;;;;;;;8.49;62.17;101250.25;5070593;28;20122;-75
2022/03/13 08:27:16;;;;;;;20.65;10.05;;;;;;;8.61;62.68;101265.81;5069301;28;20046;-75
2022/03/13 08:29:42;;;;;;;20.70;10.05;;;;;;;8.61;61.42;101249.88;5070475;28;20042;-75
2022/03/13 08:32:08;;;;;;;21.50;10.82;;;;;;;8.77;60.73;101257.75;5070186;28;20028;-74
2022/03/13 08:34:38;;;;;;;19.92;10.32;;;;;;;8.80;60.28;101252.09;5070363;28;20039;-73
2022/03/13 08:37:04;;;;;;;20.17;10.88;;;;;;;8.96;60.59;101253.81;5070170;28;20028;-72
2022/03/13 08:39:29;;;;;;;24.35;11.00;;;;;;;9.00;59.33;101252.47;5070191;28;20502;-73
2022/03/13 08:41:55;;;;;;;18.65;9.70;;;;;;;9.10;60.28;101260.22;5070235;28;20116;-74
2022/03/13 08:44:20;;;;;;;21.48;11.18;;;;;;;9.18;60.11;101266.31;5069980;28;20119;-76
2022/03/13 08:46:45;;;;;;;21.70;10.90;;;;;;;9.27;59.23;101266.25;5069764;28;20056;-74
2022/03/13 08:49:13;;;;;;;19.75;10.13;;;;;;;9.31;58.59;101263.06;5070128;28;20020;-74
2022/03/13 08:51:38;;;;;;;20.45;10.20;;;;;;;9.47;60.37;101261.28;5070089;28;20093;-76
2022/03/13 08:54:04;;;;;;;20.60;10.80;;;;;;;9.61;58.10;101265.81;5069806;28;20037;-74
2022/03/13 08:56:29;;;;;;;20.95;9.65;;;;;;;9.72;58.25;101264.53;5069309;28;20040;-74
2022/03/13 08:58:55;;;;;;;19.48;9.93;;;;;;;9.85;57.39;101260.28;5068045;28;20032;-76
2022/03/13 09:01:22;;;;;;;21.40;10.63;;;;;;;10.00;59.67;101257.59;5069363;28;20046;-75
2022/03/13 09:03:47;;;;;;;21.02;10.95;;;;;;;10.13;58.67;101243.63;5068132;28;20539;-73
2022/03/13 09:06:13;;;;;;;20.98;10.73;;;;;;;10.33;56.13;101253.78;5069596;28;20035;-75
2022/03/13 09:08:38;;;;;;;22.00;10.95;;;;;;;10.45;54.47;101250.47;5069531;28;20039;-74
2022/03/13 09:11:04;;;;;;;20.92;9.85;;;;;;;10.52;54.97;101240.69;5069481;28;20032;-74
2022/03/13 09:13:29;;;;;;;21.65;11.10;;;;;;;10.68;52.34;101231.66;5068189;28;20043;-74
2022/03/13 09:15:56;;;;;;;21.30;11.43;;;;;;;10.85;54.03;101239.44;5069258;28;20021;-74
2022/03/13 09:18:22;;;;;;;21.38;10.35;;;;;;;11.04;52.61;101235.31;5069254;28;20033;-74
2022/03/13 09:20:47;;;;;;;21.20;11.45;;;;;;;11.29;53.71;101241.94;5069385;28;20036;-74
2022/03/13 09:23:12;;;;;;;19.70;10.15;;;;;;;11.63;53.83;101237.66;5069743;28;20035;-73
2022/03/13 09:25:38;;;;;;;23.02;11.23;;;;;;;11.82;52.12;101237.00;5069279;28;20036;-74
2022/03/13 09:28:04;;;;;;;19.20;10.35;;;;;;;11.91;50.53;101242.22;5069445;28;20488;-74
2022/03/13 09:30:30;;;;;;;18.63;11.63;;;;;;;12.02;51.84;101236.31;5069324;28;20119;-74
2022/03/13 09:32:55;;;;;;;18.65;10.38;;;;;;;12.13;50.51;101232.28;5069412;28;20086;-74
2022/03/13 09:35:21;;;;;;;22.65;12.82;;;;;;;12.21;51.75;101234.81;5067901;28;20031;-74
2022/03/13 09:37:46;;;;;;;20.13;11.50;;;;;;;12.26;49.55;101233.19;5069550;28;20123;-75
2022/03/13 09:40:14;;;;;;;21.50;11.10;;;;;;;12.23;50.15;101225.53;5069337;28;20418;-74
2022/03/13 09:42:39;;;;;;;22.52;11.45;;;;;;;12.37;50.45;101239.00;5069327;28;20036;-74
2022/03/13 09:45:06;;;;;;;23.80;10.80;;;;;;;12.46;50.96;101232.44;5069372;28;20037;-74
2022/03/13 09:47:32;;;;;;;22.25;12.18;;;;;;;12.46;50.09;101227.91;5068986;28;20052;-74
2022/03/13 09:49:57;;;;;;;26.45;12.68;;;;;;;12.43;50.67;101233.66;5069330;28;20059;-74
2022/03/13 09:52:23;;;;;;;19.30;11.23;;;;;;;12.40;50.17;101230.56;5069267;28;20119;-74
2022/03/13 09:54:48;;;;;;;21.52;12.40;;;;;;;12.38;50.12;101224.59;5069282;28;20093;-73
2022/03/13 09:57:14;;;;;;;21.65;9.95;;;;;;;12.43;51.95;101241.69;5069438;28;20064;-74
2022/03/13 09:59:43;;;;;;;21.88;11.55;;;;;;;12.54;50.93;101232.25;5069078;28;20028;-74
2022/03/13 10:02:09;;;;;;;22.80;11.27;;;;;;;12.63;50.83;101231.06;5069269;28;20045;-74
2022/03/13 10:04:34;;;;;;;22.45;12.07;;;;;;;12.81;51.54;101237.69;5069237;28;20067;-74
2022/03/13 10:07:15;;;;;;;20.75;11.23;;;;;;;12.99;50.83;101240.63;5071893;28;20025;-74
2022/03/13 10:09:43;;;;;;;21.60;12.23;;;;;;;13.13;51.13;101234.28;5072469;28;20032;-74
2022/03/13 10:12:10;;;;;;;20.77;10.63;;;;;;;13.23;50.34;101233.03;5072781;28;20537;-74
2022/03/13 10:14:56;;;;;;;21.73;11.20;;;;;;;13.29;51.21;101232.25;5072681;28;20040;-74
2022/03/13 10:17:30;;;;;;;19.50;11.20;;;;;;;13.41;51.60;101221.75;5070658;28;20032;-74
2022/03/13 10:20:16;;;;;;;22.35;11.20;;;;;;;13.48;51.86;101226.06;5072818;28;20066;-74
2022/03/13 10:22:49;;;;;;;21.80;11.65;;;;;;;13.51;50.51;101217.63;5071472;28;20064;-75
2022/03/13 10:25:28;;;;;;;21.90;11.18;;;;;;;13.70;51.04;101226.69;5072634;28;20036;-74
2022/03/13 10:27:59;;;;;;;18.98;10.38;;;;;;;13.83;50.15;101212.41;5072456;28;20501;-74
2022/03/13 10:30:24;;;;;;;20.58;10.27;;;;;;;13.97;50.29;101210.56;5058773;28;21498;-76
2022/03/13 10:32:57;;;;;;;23.35;12.18;;;;;;;14.08;48.67;101209.91;5066964;28;20046;-75
2022/03/13 10:35:23;;;;;;;21.17;10.88;;;;;;;14.15;48.54;101204.53;5067107;28;20027;-75
2022/03/13 10:37:48;;;;;;;17.98;9.77;;;;;;;14.17;47.78;101194.38;5067588;28;20056;-76
2022/03/13 10:40:19;;;;;;;20.13;10.98;;;;;;;14.20;48.22;101193.94;5067192;28;20095;-75
2022/03/13 10:42:44;;;;;;;19.30;9.93;;;;;;;14.28;49.33;101199.09;5067217;28;20036;-75
2022/03/13 10:45:31;;;;;;;20.25;10.80;;;;;;;14.21;47.88;101192.94;5067207;28;20456;-75
2022/03/13 10:48:18;;;;;;;19.40;9.27;;;;;;;14.14;49.90;101192.13;5066000;28;20068;-75
2022/03/13 10:50:44;;;;;;;14.13;7.22;;;;;;;14.27;50.28;101193.94;5065839;28;20063;-75
2022/03/13 10:53:13;;;;;;;17.60;9.05;;;;;;;14.39;49.73;101193.06;5065828;28;20104;-75
2022/03/13 10:55:39;;;;;;;18.88;9.18;;;;;;;14.45;48.25;101189.50;5066775;28;20037;-75
2022/03/13 10:58:05;;;;;;;18.02;8.93;;;;;;;14.54;47.48;101187.47;5065253;28;20039;-75
2022/03/13 11:00:30;;;;;;;20.70;9.85;;;;;;;14.57;49.43;101184.34;5068396;28;20031;-76
2022/03/13 11:03:14;;;;;;;18.75;8.73;;;;;;;14.68;50.22;101183.66;5072421;28;20021;-75
2022/03/13 11:05:40;;;;;;;20.13;10.40;;;;;;;14.79;49.05;101174.06;5072493;28;20063;-76
2022/03/13 11:08:07;;;;;;;17.48;8.65;;;;;;;14.86;47.73;101174.88;5072364;28;20449;-76
2022/03/13 11:10:36;;;;;;;17.27;9.65;;;;;;;14.80;45.91;101181.13;5071144;28;20028;-75
2022/03/13 11:13:03;;;;;;;18.65;9.65;;;;;;;14.75;47.03;101180.94;5070977;28;20457;-74
2022/03/13 11:15:30;;;;;;;18.95;9.48;;;;;;;14.85;49.49;101167.84;5072592;28;20667;-75